Hovedside
METAR-TAF:

METAR-TAF

Lufthavner :

Nakashibetsu, Japan

breddegrad: 43-34N, lengdegrad: 144-58E, høyde over havet: 66 m

Gjeldene værobservasjon

Denne rapporten ble laget for 5 timer og 49 minutter siden, klokken 09:00 UTC
Vind 2 kt fra Nord-nordvest
Temperatur -5°C
Luftfuktighet 73%
Trykk 1011 hPa
Sikt 10 km eller mer
Få skyer i en høyde av 1500 ft
Spredte skyer i en høyde av 5000 ft

METAR: RJCN 040900Z 34002KT 9999 FEW015 SCT050 M05/M09 Q1011

Tid: 23:49 (14:49 UTC)


TAF: fraværende

Værobservasjoner og værvarsel for over 4000 flyplasser (METAR- og TAF-rapporter).

Tilgjengelige stasjoner er representert av de røde og gule prikkene på kartet.

Hold musepekeren over prikken for å se navnet på stasjonen.

Klikk så for å se værobservasjoner og -varsler.

For å forandre kartet kan du klikke på den grønne knappen med svart kryss for å zoome inn, på den grønne knappen med strek for å zoome ut, eller på de grønne pilene for å se tilstøtende kart.


METAR-TAF: